Avondale, Kentucky
Current Conditions -  °F | °C
As of 1:53 AM on Sunday 23 Nov 2014 (Local Time) from KPAH Reporting Station
Clear Clear  
Wind Chill: 52°   Ceiling: Unl
Heat Index: 52°   Visibility: 10mi
Dew Point: 43°   Wind: 9mph
Humidity: 71%   Direction: 150°SSE
Pressure: 29.91"   Gusts: NA
Location:  37.0331°N, 88.716°W
Report Text: KPAH 230753Z AUTO 15008KT 10SM CLR 11/06 A2991 RMK AO2 SLP127 T01110061 $
Loading
Personal Weather Stations






























Interactive Weather Map New forecast layout! Learn more

10-Day Weather Forecast

Advertisements
Track Severe Weather on mobile